Terminal Aerodrome Forecast
Issued by NWS

Home | Current Version | Previous Version | Text Only | Print | Product List | Glossary On
Versions: 1 2 3 4 5 6 7 8 9 10 11 12 13 14 15 16 17
000
FTUS42 KMLB 231138
TAFSFB
TAF
KSFB 231138Z 2312/2412 13003KT P6SM FEW020 FEW100
     FM231400 13006KT P6SM SCT025 SCT100 BKN250
     FM231800 11010KT P6SM VCSH BKN035 BKN050
      TEMPO 2319/2322 3SM SHRA BKN025
     FM240000 10006KT P6SM FEW045 SCT080 BKN150=

USA.gov is the U.S. government's official web portal to all federal, state and local government web resources and services.